Time;durP1;ratioP1;P1;durP2;ratioP2;P2;SDS_P1;SDS_P2;PMS_P1;PMS_P2;Temp;Humidity;BMP_temperature;BMP_pressure;BME280_temperature;BME280_humidity;BME280_pressure;Samples;Min_cycle;Max_cycle;Signal;HPM_P1;HPM_P2
2021/07/23 00:00:28;;;;;;;;;;;24.40;58.30;;;;;;5134996;27;20328;-55
2021/07/23 00:02:55;;;;;;;;;;;24.30;58.30;;;;;;5135163;27;19928;-55
2021/07/23 00:05:22;;;;;;;;;;;24.30;58.30;;;;;;5125471;27;20435;-55
2021/07/23 00:07:49;;;;;;;;;;;24.30;58.40;;;;;;5123768;27;20332;-55
2021/07/23 00:10:16;;;;;;;;;;;24.30;58.40;;;;;;5133845;27;19938;-55
2021/07/23 00:12:43;;;;;;;;;;;24.30;58.50;;;;;;5133750;27;19923;-50
2021/07/23 00:15:10;;;;;;;;;;;24.30;58.40;;;;;;5134562;27;19923;-54
2021/07/23 00:17:37;;;;;;;;;;;24.30;58.50;;;;;;5133513;27;20310;-55
2021/07/23 00:20:05;;;;;;;;;;;24.30;58.40;;;;;;5133364;27;19923;-56
2021/07/23 00:22:32;;;;;;;;;;;24.30;58.40;;;;;;5117652;27;19972;-56
2021/07/23 00:24:59;;;;;;;;;;;24.30;58.50;;;;;;5134161;27;19934;-54
2021/07/23 00:27:26;;;;;;;;;;;24.30;58.50;;;;;;5134576;27;19923;-55
2021/07/23 00:29:53;;;;;;;;;;;24.30;58.50;;;;;;5132971;27;19928;-55
2021/07/23 00:32:20;;;;;;;;;;;24.30;58.50;;;;;;5133980;27;20383;-53
2021/07/23 00:34:47;;;;;;;;;;;24.30;58.50;;;;;;5134329;27;19963;-57
2021/07/23 00:37:14;;;;;;;;;;;24.30;58.50;;;;;;5115421;27;19934;-54
2021/07/23 00:39:41;;;;;;;;;;;24.20;58.50;;;;;;5131934;27;19931;-53
2021/07/23 00:42:09;;;;;;;;;;;24.20;58.50;;;;;;5132658;27;19967;-56
2021/07/23 00:44:35;;;;;;;;;;;24.20;58.50;;;;;;5134445;27;19923;-53
2021/07/23 00:47:03;;;;;;;;;;;24.20;58.50;;;;;;5133289;27;19924;-53
2021/07/23 00:49:30;;;;;;;;;;;24.20;58.50;;;;;;5122156;27;19928;-51
2021/07/23 00:51:57;;;;;;;;;;;24.20;58.50;;;;;;5126920;27;19947;-54
2021/07/23 00:54:25;;;;;;;;;;;24.20;58.40;;;;;;5123509;27;20026;-54
2021/07/23 00:56:52;;;;;;;;;;;24.20;58.50;;;;;;5107083;27;19974;-53
2021/07/23 00:59:19;;;;;;;;;;;24.20;58.50;;;;;;5133538;27;19924;-53
2021/07/23 01:01:47;;;;;;;;;;;24.20;58.50;;;;;;5132445;27;19923;-51
2021/07/23 01:04:15;;;;;;;;;;;24.20;58.50;;;;;;5132865;27;20299;-55
2021/07/23 01:06:42;;;;;;;;;;;24.10;58.30;;;;;;5132970;27;19923;-52
2021/07/23 01:09:08;;;;;;;;;;;24.10;58.40;;;;;;5134023;27;19948;-54
2021/07/23 01:11:37;;;;;;;;;;;24.10;58.50;;;;;;5133620;27;20404;-57
2021/07/23 01:14:04;;;;;;;;;;;24.10;58.50;;;;;;5132360;27;19980;-52
2021/07/23 01:16:32;;;;;;;;;;;24.10;58.50;;;;;;5132604;27;19986;-49
2021/07/23 01:19:05;;;;;;;;;;;24.10;58.50;;;;;;5132660;27;19970;-55
2021/07/23 01:21:33;;;;;;;;;;;24.10;58.50;;;;;;5133906;27;19930;-52
2021/07/23 01:24:01;;;;;;;;;;;24.10;58.50;;;;;;5132720;27;20332;-55
2021/07/23 01:26:28;;;;;;;;;;;24.10;58.50;;;;;;5133436;27;19924;-54
2021/07/23 01:28:55;;;;;;;;;;;24.10;58.50;;;;;;5131336;28;19976;-55
2021/07/23 01:31:22;;;;;;;;;;;24.10;58.60;;;;;;5131548;28;19970;-54
2021/07/23 01:33:49;;;;;;;;;;;24.10;58.60;;;;;;5115796;28;19972;-52
2021/07/23 01:36:16;;;;;;;;;;;24.10;58.60;;;;;;5123018;27;20395;-52
2021/07/23 01:38:44;;;;;;;;;;;24.10;58.70;;;;;;5136746;27;20281;-55
2021/07/23 01:41:11;;;;;;;;;;;24.10;58.70;;;;;;5122457;27;20387;-52
2021/07/23 01:43:38;;;;;;;;;;;24.00;58.60;;;;;;5133532;27;19924;-50
2021/07/23 01:46:05;;;;;;;;;;;24.00;58.60;;;;;;5104768;28;19933;-54
2021/07/23 01:48:32;;;;;;;;;;;24.00;58.60;;;;;;5132149;27;19934;-51
2021/07/23 01:50:59;;;;;;;;;;;24.10;58.70;;;;;;5136094;27;20436;-54
2021/07/23 01:53:26;;;;;;;;;;;24.00;58.60;;;;;;5125666;27;19931;-54
2021/07/23 01:55:53;;;;;;;;;;;24.00;58.70;;;;;;5087830;28;19969;-56
2021/07/23 01:58:20;;;;;;;;;;;24.00;58.70;;;;;;5095000;28;19959;-54
2021/07/23 02:00:47;;;;;;;;;;;24.00;58.70;;;;;;5096652;28;19931;-55
2021/07/23 02:03:15;;;;;;;;;;;24.00;58.70;;;;;;5095018;28;19935;-54
2021/07/23 02:05:42;;;;;;;;;;;24.00;58.70;;;;;;5094039;28;19924;-53
2021/07/23 02:08:09;;;;;;;;;;;24.00;58.70;;;;;;5096134;28;19924;-55
2021/07/23 02:10:35;;;;;;;;;;;24.00;58.70;;;;;;5093983;28;19985;-54
2021/07/23 02:13:04;;;;;;;;;;;24.00;58.70;;;;;;5096001;28;19971;-54
2021/07/23 02:15:31;;;;;;;;;;;24.00;58.70;;;;;;5094585;28;19924;-54
2021/07/23 02:17:58;;;;;;;;;;;23.90;58.60;;;;;;5095222;28;19932;-54
2021/07/23 02:20:25;;;;;;;;;;;24.00;58.70;;;;;;5096415;28;19924;-55
2021/07/23 02:22:52;;;;;;;;;;;23.90;58.60;;;;;;5094457;28;19928;-53
2021/07/23 02:25:19;;;;;;;;;;;23.90;58.60;;;;;;5078635;28;19942;-53
2021/07/23 02:27:46;;;;;;;;;;;23.90;58.60;;;;;;5094845;28;19924;-55
2021/07/23 02:30:13;;;;;;;;;;;23.90;58.60;;;;;;5094926;28;20398;-55
2021/07/23 02:32:40;;;;;;;;;;;23.90;58.60;;;;;;5096021;28;19924;-56
2021/07/23 02:35:08;;;;;;;;;;;23.90;58.60;;;;;;5093459;28;20435;-54
2021/07/23 02:37:35;;;;;;;;;;;23.90;58.60;;;;;;5093232;28;19974;-55
2021/07/23 02:40:02;;;;;;;;;;;23.90;58.60;;;;;;5080233;28;19924;-55
2021/07/23 02:42:29;;;;;;;;;;;23.90;58.60;;;;;;5077892;28;19970;-57
2021/07/23 02:44:56;;;;;;;;;;;23.90;58.50;;;;;;5088038;28;19924;-53
2021/07/23 02:47:23;;;;;;;;;;;23.90;58.60;;;;;;5083860;28;19925;-56
2021/07/23 02:49:50;;;;;;;;;;;23.90;58.60;;;;;;5084939;28;19924;-54
2021/07/23 02:52:17;;;;;;;;;;;23.90;58.60;;;;;;5095619;28;19924;-54
2021/07/23 02:54:44;;;;;;;;;;;23.90;58.60;;;;;;5115332;27;20367;-57
2021/07/23 02:57:10;;;;;;;;;;;23.90;58.60;;;;;;5133689;27;20328;-55
2021/07/23 02:59:38;;;;;;;;;;;23.90;58.60;;;;;;5134775;27;20002;-51
2021/07/23 03:02:05;;;;;;;;;;;23.90;58.60;;;;;;5135238;27;20336;-55
2021/07/23 03:04:32;;;;;;;;;;;23.80;58.50;;;;;;5133869;27;20388;-52
2021/07/23 03:06:59;;;;;;;;;;;23.80;58.50;;;;;;5134088;27;19924;-55
2021/07/23 03:09:26;;;;;;;;;;;23.90;58.60;;;;;;5117673;27;19931;-54
2021/07/23 03:11:53;;;;;;;;;;;23.90;58.50;;;;;;5134810;27;19931;-54
2021/07/23 03:14:20;;;;;;;;;;;23.90;58.50;;;;;;5134600;27;19927;-56
2021/07/23 03:16:47;;;;;;;;;;;23.90;58.40;;;;;;5098848;27;20348;-55
2021/07/23 03:19:14;;;;;;;;;;;23.90;58.40;;;;;;5135393;27;19927;-53
2021/07/23 03:21:41;;;;;;;;;;;23.90;58.40;;;;;;5135782;27;19923;-55
2021/07/23 03:24:08;;;;;;;;;;;23.90;58.40;;;;;;5118567;27;19924;-54
2021/07/23 03:26:35;;;;;;;;;;;23.80;58.30;;;;;;5119041;27;19973;-55
2021/07/23 03:29:03;;;;;;;;;;;23.80;58.40;;;;;;5134399;27;19984;-55
2021/07/23 03:31:30;;;;;;;;;;;23.80;58.40;;;;;;5135464;27;20417;-54
2021/07/23 03:33:58;;;;;;;;;;;23.80;58.40;;;;;;5134697;27;19924;-53
2021/07/23 03:36:25;;;;;;;;;;;23.80;58.40;;;;;;5121480;27;20325;-56
2021/07/23 03:38:51;;;;;;;;;;;23.80;58.40;;;;;;5127701;27;20414;-53
2021/07/23 03:41:18;;;;;;;;;;;23.80;58.30;;;;;;5135684;27;19977;-52
2021/07/23 03:43:45;;;;;;;;;;;23.80;58.40;;;;;;5124089;27;19927;-54
2021/07/23 03:46:12;;;;;;;;;;;23.80;58.40;;;;;;5127197;27;19923;-51
2021/07/23 03:48:39;;;;;;;;;;;23.80;58.40;;;;;;5133794;27;19979;-55
2021/07/23 03:51:06;;;;;;;;;;;23.80;58.40;;;;;;5114492;27;19927;-52
2021/07/23 03:53:33;;;;;;;;;;;23.80;58.40;;;;;;5133797;27;19923;-53
2021/07/23 03:56:06;;;;;;;;;;;23.80;58.40;;;;;;5135126;27;19924;-56
2021/07/23 03:58:37;;;;;;;;;;;23.80;58.40;;;;;;5114196;27;20031;-53
2021/07/23 04:01:04;;;;;;;;;;;23.80;58.30;;;;;;5134064;27;20006;-56
2021/07/23 04:03:33;;;;;;;;;;;23.90;58.40;;;;;;5133543;27;19972;-53
2021/07/23 04:06:04;;;;;;;;;;;23.90;58.30;;;;;;5133385;27;20003;-54
2021/07/23 04:08:31;;;;;;;;;;;23.90;58.30;;;;;;5133646;27;20002;-56
2021/07/23 04:10:58;;;;;;;;;;;23.90;58.20;;;;;;5134787;27;19976;-54
2021/07/23 04:13:25;;;;;;;;;;;23.90;58.20;;;;;;5133088;27;19966;-57
2021/07/23 04:15:52;;;;;;;;;;;23.90;58.20;;;;;;5116949;27;19937;-49
2021/07/23 04:18:19;;;;;;;;;;;23.90;58.10;;;;;;5133585;27;19923;-55
2021/07/23 04:20:46;;;;;;;;;;;23.90;58.20;;;;;;5134962;27;20340;-56
2021/07/23 04:23:13;;;;;;;;;;;23.90;58.10;;;;;;5116779;27;19928;-51
2021/07/23 04:25:40;;;;;;;;;;;23.90;58.10;;;;;;5132269;27;19991;-53
2021/07/23 04:28:08;;;;;;;;;;;23.90;58.20;;;;;;5118057;27;19924;-51
2021/07/23 04:30:34;;;;;;;;;;;23.90;58.10;;;;;;5131272;27;20006;-52
2021/07/23 04:33:02;;;;;;;;;;;23.90;58.20;;;;;;5132321;27;19928;-55
2021/07/23 04:35:28;;;;;;;;;;;23.90;58.10;;;;;;5129422;27;19959;-54
2021/07/23 04:37:55;;;;;;;;;;;24.00;58.10;;;;;;5111192;27;20428;-53
2021/07/23 04:40:22;;;;;;;;;;;24.00;58.60;;;;;;5131694;27;20370;-52
2021/07/23 04:42:49;;;;;;;;;;;24.10;58.00;;;;;;5131418;27;19923;-54
2021/07/23 04:45:16;;;;;;;;;;;24.10;58.00;;;;;;5133052;27;20295;-53
2021/07/23 04:47:43;;;;;;;;;;;24.10;57.80;;;;;;5133320;27;20264;-50
2021/07/23 04:50:11;;;;;;;;;;;24.10;57.80;;;;;;5134221;27;20332;-51
2021/07/23 04:52:37;;;;;;;;;;;24.20;57.80;;;;;;5131497;27;19923;-53
2021/07/23 04:55:09;;;;;;;;;;;24.20;57.70;;;;;;5132638;27;19980;-52
2021/07/23 04:57:44;;;;;;;;;;;24.30;57.70;;;;;;5132362;27;20431;-54
2021/07/23 05:00:11;;;;;;;;;;;24.30;57.60;;;;;;5114351;27;19923;-51
2021/07/23 05:02:41;;;;;;;;;;;24.30;57.50;;;;;;5133796;27;19923;-54
2021/07/23 05:05:12;;;;;;;;;;;24.40;57.50;;;;;;5134030;27;19923;-51
2021/07/23 05:07:40;;;;;;;;;;;24.40;57.40;;;;;;5132550;27;19923;-54
2021/07/23 05:10:08;;;;;;;;;;;24.40;57.30;;;;;;5132007;27;19931;-55
2021/07/23 05:12:37;;;;;;;;;;;24.40;57.40;;;;;;5113970;28;19924;-53
2021/07/23 05:15:04;;;;;;;;;;;24.50;57.30;;;;;;5117209;27;19923;-56
2021/07/23 05:17:32;;;;;;;;;;;24.50;57.30;;;;;;5116695;28;19941;-52
2021/07/23 05:20:00;;;;;;;;;;;24.50;57.20;;;;;;5133891;27;19927;-53
2021/07/23 05:22:28;;;;;;;;;;;24.60;57.20;;;;;;5133990;27;19968;-51
2021/07/23 05:24:55;;;;;;;;;;;24.60;57.20;;;;;;5115476;27;19927;-53
2021/07/23 05:27:23;;;;;;;;;;;24.60;57.10;;;;;;5132411;27;19988;-55
2021/07/23 05:29:51;;;;;;;;;;;24.60;57.00;;;;;;5115694;28;19931;-51
2021/07/23 05:32:18;;;;;;;;;;;24.60;57.50;;;;;;5131233;28;19949;-51
2021/07/23 05:34:45;;;;;;;;;;;24.70;57.00;;;;;;5133740;28;19981;-54
2021/07/23 05:37:12;;;;;;;;;;;24.70;56.90;;;;;;5131209;28;19927;-54
2021/07/23 05:39:41;;;;;;;;;;;24.70;56.80;;;;;;5113986;28;19962;-53
2021/07/23 05:42:08;;;;;;;;;;;24.80;56.90;;;;;;5132575;28;19927;-54
2021/07/23 05:44:35;;;;;;;;;;;24.80;56.80;;;;;;5130705;28;20272;-50
2021/07/23 05:47:02;;;;;;;;;;;24.80;56.80;;;;;;5132237;28;19923;-51
2021/07/23 05:49:29;;;;;;;;;;;24.80;56.60;;;;;;5133555;28;19973;-51
2021/07/23 05:51:56;;;;;;;;;;;24.80;56.60;;;;;;5133293;28;19927;-52
2021/07/23 05:54:23;;;;;;;;;;;24.80;56.70;;;;;;5131523;28;19923;-51
2021/07/23 05:56:50;;;;;;;;;;;24.80;56.80;;;;;;5131190;28;19972;-49
2021/07/23 05:59:17;;;;;;;;;;;24.80;56.70;;;;;;5131872;28;20337;-51
2021/07/23 06:01:44;;;;;;;;;;;24.80;56.60;;;;;;5131649;28;20427;-50
2021/07/23 06:04:11;;;;;;;;;;;24.90;56.70;;;;;;5131627;28;19924;-51
2021/07/23 06:06:38;;;;;;;;;;;24.90;56.90;;;;;;5128191;28;19931;-49
2021/07/23 06:09:07;;;;;;;;;;;24.80;56.80;;;;;;5119124;28;19923;-54
2021/07/23 06:11:37;;;;;;;;;;;24.80;56.90;;;;;;5129729;28;20018;-50
2021/07/23 06:14:05;;;;;;;;;;;24.80;57.00;;;;;;5114789;28;19924;-51
2021/07/23 06:16:32;;;;;;;;;;;24.80;56.90;;;;;;5116892;28;19957;-53
2021/07/23 06:18:59;;;;;;;;;;;24.80;56.80;;;;;;5131371;28;19931;-50
2021/07/23 06:21:26;;;;;;;;;;;24.80;56.80;;;;;;5132095;27;19971;-55
2021/07/23 06:23:53;;;;;;;;;;;24.80;57.00;;;;;;5135824;27;19927;-52
2021/07/23 06:26:20;;;;;;;;;;;24.80;57.00;;;;;;5135908;27;19949;-56
2021/07/23 06:28:47;;;;;;;;;;;24.80;57.50;;;;;;5136248;27;19928;-57
2021/07/23 06:31:14;;;;;;;;;;;24.80;57.00;;;;;;5136868;27;19928;-55
2021/07/23 06:33:42;;;;;;;;;;;24.80;56.90;;;;;;5135529;27;20286;-55
2021/07/23 06:36:09;;;;;;;;;;;24.90;56.90;;;;;;5126200;27;19924;-55
2021/07/23 06:38:36;;;;;;;;;;;24.90;56.90;;;;;;5133050;27;19942;-56
2021/07/23 06:41:06;;;;;;;;;;;24.90;56.80;;;;;;5116037;27;19923;-56
2021/07/23 06:43:33;;;;;;;;;;;24.90;56.70;;;;;;5118186;27;19923;-54
2021/07/23 06:46:04;;;;;;;;;;;25.00;56.80;;;;;;5136209;27;19924;-54
2021/07/23 06:48:32;;;;;;;;;;;25.00;56.70;;;;;;5136382;27;19924;-54
2021/07/23 06:51:02;;;;;;;;;;;25.00;56.70;;;;;;5125144;27;20409;-54
2021/07/23 06:53:29;;;;;;;;;;;25.00;57.30;;;;;;5118087;27;19924;-50
2021/07/23 06:55:56;;;;;;;;;;;25.10;56.60;;;;;;5101461;28;19973;-53
2021/07/23 06:58:23;;;;;;;;;;;25.10;56.70;;;;;;5125127;27;19927;-54
2021/07/23 07:00:50;;;;;;;;;;;25.10;56.60;;;;;;5136024;27;19929;-53
2021/07/23 07:03:17;;;;;;;;;;;25.10;56.70;;;;;;5136349;27;20017;-52
2021/07/23 07:05:48;;;;;;;;;;;25.10;56.80;;;;;;5133760;27;19976;-52
2021/07/23 07:08:15;;;;;;;;;;;25.10;56.70;;;;;;5116071;27;19927;-51
2021/07/23 07:10:42;;;;;;;;;;;25.10;56.80;;;;;;5133774;27;19931;-51
2021/07/23 07:13:09;;;;;;;;;;;25.10;56.80;;;;;;5134788;27;20017;-54
2021/07/23 07:15:36;;;;;;;;;;;25.20;56.80;;;;;;5134426;27;19970;-55
2021/07/23 07:18:03;;;;;;;;;;;25.20;56.80;;;;;;5117665;27;19923;-54
2021/07/23 07:20:33;;;;;;;;;;;25.20;56.70;;;;;;5116529;27;19924;-55
2021/07/23 07:23:01;;;;;;;;;;;25.20;56.60;;;;;;5135581;27;20379;-51
2021/07/23 07:25:31;;;;;;;;;;;25.30;56.70;;;;;;5136205;27;19924;-53
2021/07/23 07:27:58;;;;;;;;;;;25.30;56.60;;;;;;5134598;27;19970;-55
2021/07/23 07:30:25;;;;;;;;;;;25.30;56.50;;;;;;5134744;27;19951;-53
2021/07/23 07:32:53;;;;;;;;;;;25.30;56.40;;;;;;5134074;27;19923;-53
2021/07/23 07:35:20;;;;;;;;;;;25.40;56.30;;;;;;5132130;27;20272;-52
2021/07/23 07:37:47;;;;;;;;;;;25.40;56.30;;;;;;5132221;27;19923;-53
2021/07/23 07:40:14;;;;;;;;;;;25.40;56.50;;;;;;5134335;27;19946;-56
2021/07/23 07:42:41;;;;;;;;;;;25.40;56.20;;;;;;5134087;27;19930;-53
2021/07/23 07:45:08;;;;;;;;;;;25.40;56.20;;;;;;5123517;27;19927;-54
2021/07/23 07:47:35;;;;;;;;;;;25.40;56.30;;;;;;5127919;27;19968;-53
2021/07/23 07:50:02;;;;;;;;;;;25.40;56.10;;;;;;5125134;27;19924;-52
2021/07/23 07:52:29;;;;;;;;;;;25.50;56.20;;;;;;5107944;27;19988;-56
2021/07/23 07:54:56;;;;;;;;;;;25.40;56.10;;;;;;5133714;27;20444;-55
2021/07/23 07:57:23;;;;;;;;;;;25.50;56.20;;;;;;5134594;27;19924;-53
2021/07/23 07:59:50;;;;;;;;;;;25.50;56.00;;;;;;5134945;27;20383;-55
2021/07/23 08:02:18;;;;;;;;;;;25.50;56.00;;;;;;5133850;27;20290;-56
2021/07/23 08:04:46;;;;;;;;;;;25.60;55.80;;;;;;5133398;27;19927;-55
2021/07/23 08:07:18;;;;;;;;;;;25.60;55.80;;;;;;5132613;27;19923;-52
2021/07/23 08:10:02;;;;;;;;;;;25.60;55.70;;;;;;5133662;27;19935;-55
2021/07/23 08:12:30;;;;;;;;;;;25.60;55.70;;;;;;5133606;27;19980;-55
2021/07/23 08:14:58;;;;;;;;;;;25.60;55.80;;;;;;5131964;27;20011;-52
2021/07/23 08:17:25;;;;;;;;;;;25.60;56.30;;;;;;5133296;27;19923;-55
2021/07/23 08:19:52;;;;;;;;;;;25.60;55.60;;;;;;5132678;27;20344;-55
2021/07/23 08:22:19;;;;;;;;;;;25.60;55.70;;;;;;5133694;27;19923;-57
2021/07/23 08:24:47;;;;;;;;;;;25.70;55.80;;;;;;5133398;27;19933;-57
2021/07/23 08:27:18;;;;;;;;;;;25.70;55.80;;;;;;5117006;27;19924;-50
2021/07/23 08:29:46;;;;;;;;;;;25.70;55.80;;;;;;5132905;27;19934;-51
2021/07/23 08:32:13;;;;;;;;;;;25.70;55.90;;;;;;5134511;27;19930;-57
2021/07/23 08:34:41;;;;;;;;;;;25.70;55.80;;;;;;5133463;27;19923;-55
2021/07/23 08:37:08;;;;;;;;;;;25.70;55.80;;;;;;5114478;27;19924;-55
2021/07/23 08:39:35;;;;;;;;;;;25.70;55.90;;;;;;5099160;28;19928;-51
2021/07/23 08:42:21;;;;;;;;;;;25.80;56.00;;;;;;5117641;27;19923;-52
2021/07/23 08:44:48;;;;;;;;;;;25.80;56.00;;;;;;5133116;27;19935;-50
2021/07/23 08:47:15;;;;;;;;;;;25.80;55.90;;;;;;5134140;27;20387;-54
2021/07/23 08:49:42;;;;;;;;;;;25.80;55.80;;;;;;5116140;27;20039;-55
2021/07/23 08:52:09;;;;;;;;;;;25.80;55.80;;;;;;5119573;27;19946;-53
2021/07/23 08:54:36;;;;;;;;;;;25.80;55.60;;;;;;5116749;27;19971;-55
2021/07/23 08:57:03;;;;;;;;;;;25.80;55.70;;;;;;5127691;27;19930;-54
2021/07/23 08:59:33;;;;;;;;;;;25.90;55.70;;;;;;5133648;27;19923;-54
2021/07/23 09:02:04;;;;;;;;;;;25.90;55.80;;;;;;5132644;27;19929;-56
2021/07/23 09:04:33;;;;;;;;;;;25.90;55.60;;;;;;5132839;27;19923;-53
2021/07/23 09:07:12;;;;;;;;;;;25.90;55.40;;;;;;5132298;27;19923;-54
2021/07/23 09:09:39;;;;;;;;;;;25.90;55.40;;;;;;5132704;27;19927;-54
2021/07/23 09:12:06;;;;;;;;;;;26.00;55.40;;;;;;5132527;27;19980;-53
2021/07/23 09:14:33;;;;;;;;;;;26.00;55.00;;;;;;5132444;27;19971;-53
2021/07/23 09:17:01;;;;;;;;;;;26.00;55.00;;;;;;5131666;27;19931;-53
2021/07/23 09:19:28;;;;;;;;;;;26.00;55.00;;;;;;5133536;27;19977;-52
2021/07/23 09:21:58;;;;;;;;;;;26.00;55.10;;;;;;5092793;28;19947;-54
2021/07/23 09:24:48;;;;;;;;;;;26.00;55.00;;;;;;5122652;27;19970;-54
2021/07/23 09:27:34;;;;;;;;;;;26.00;55.00;;;;;;5131926;27;19924;-51
2021/07/23 09:30:05;;;;;;;;;;;26.10;55.00;;;;;;5133649;27;19928;-51
2021/07/23 09:32:32;;;;;;;;;;;26.10;54.80;;;;;;5133855;27;19923;-56
2021/07/23 09:35:15;;;;;;;;;;;26.10;54.80;;;;;;5114433;28;20393;-55
2021/07/23 09:37:55;;;;;;;;;;;26.10;54.80;;;;;;5124354;28;19923;-54
2021/07/23 09:40:23;;;;;;;;;;;26.10;54.70;;;;;;5122519;28;19924;-55
2021/07/23 09:42:56;;;;;;;;;;;26.10;54.70;;;;;;5123662;28;19978;-53
2021/07/23 09:45:26;;;;;;;;;;;26.10;54.60;;;;;;5130841;28;19923;-54
2021/07/23 09:48:06;;;;;;;;;;;26.10;54.60;;;;;;5131611;28;19924;-56
2021/07/23 09:50:34;;;;;;;;;;;26.10;54.40;;;;;;5131402;28;19972;-53
2021/07/23 09:53:02;;;;;;;;;;;26.20;54.30;;;;;;5115050;28;20378;-54
2021/07/23 09:55:29;;;;;;;;;;;26.20;54.30;;;;;;5131730;28;19946;-54
2021/07/23 09:57:57;;;;;;;;;;;26.20;54.30;;;;;;5134060;27;19923;-53
2021/07/23 10:00:25;;;;;;;;;;;26.20;54.20;;;;;;5137323;27;20452;-57
2021/07/23 10:02:55;;;;;;;;;;;26.20;54.10;;;;;;5137278;27;19962;-55
2021/07/23 10:05:25;;;;;;;;;;;26.20;54.10;;;;;;5135290;27;19923;-56
2021/07/23 10:08:00;;;;;;;;;;;26.20;53.90;;;;;;5136162;27;19923;-52
2021/07/23 10:10:27;;;;;;;;;;;26.20;53.90;;;;;;5136354;27;19923;-56
2021/07/23 10:12:55;;;;;;;;;;;26.20;53.60;;;;;;5136618;27;19946;-55
2021/07/23 10:15:23;;;;;;;;;;;26.20;53.80;;;;;;5135638;27;19923;-53
2021/07/23 10:17:51;;;;;;;;;;;26.20;53.90;;;;;;5137238;27;19924;-52
2021/07/23 10:20:18;;;;;;;;;;;26.20;53.30;;;;;;5135668;27;19927;-52
2021/07/23 10:22:49;;;;;;;;;;;26.20;53.60;;;;;;5118153;27;19934;-54
2021/07/23 10:25:17;;;;;;;;;;;26.20;53.70;;;;;;5117515;27;19931;-54
2021/07/23 10:27:47;;;;;;;;;;;26.20;53.30;;;;;;5117970;27;19924;-51
2021/07/23 10:30:33;;;;;;;;;;;26.20;53.20;;;;;;5136875;27;19927;-51
2021/07/23 10:33:01;;;;;;;;;;;26.20;53.20;;;;;;5117434;27;19931;-54
2021/07/23 10:35:29;;;;;;;;;;;26.20;53.00;;;;;;5118076;27;19963;-53
2021/07/23 10:37:56;;;;;;;;;;;26.20;52.70;;;;;;5118468;27;19928;-53
2021/07/23 10:40:37;;;;;;;;;;;26.30;52.70;;;;;;5136696;27;19923;-54
2021/07/23 10:43:23;;;;;;;;;;;26.30;52.70;;;;;;5116531;27;19923;-55
2021/07/23 10:45:50;;;;;;;;;;;26.30;52.80;;;;;;5118849;27;20295;-50
2021/07/23 10:48:35;;;;;;;;;;;26.30;52.80;;;;;;5136110;27;19937;-53
2021/07/23 10:51:02;;;;;;;;;;;26.30;52.90;;;;;;5118373;27;19924;-52
2021/07/23 10:53:31;;;;;;;;;;;26.30;52.90;;;;;;5134483;27;19931;-51
2021/07/23 10:55:58;;;;;;;;;;;26.30;52.30;;;;;;5135763;27;19923;-51
2021/07/23 10:58:25;;;;;;;;;;;26.30;52.30;;;;;;5133581;27;19927;-53
2021/07/23 11:00:55;;;;;;;;;;;26.30;52.00;;;;;;5135684;27;19923;-53
2021/07/23 11:03:37;;;;;;;;;;;26.30;51.90;;;;;;5135146;27;19924;-50
2021/07/23 11:06:15;;;;;;;;;;;26.30;52.10;;;;;;5136216;27;19923;-55
2021/07/23 11:08:49;;;;;;;;;;;26.30;52.30;;;;;;5133731;27;19923;-53
2021/07/23 11:11:17;;;;;;;;;;;26.30;52.30;;;;;;5136137;27;20017;-51
2021/07/23 11:13:45;;;;;;;;;;;26.30;52.20;;;;;;5136183;27;20367;-52
2021/07/23 11:16:16;;;;;;;;;;;26.40;52.30;;;;;;5134785;27;19924;-50
2021/07/23 11:19:09;;;;;;;;;;;26.40;52.20;;;;;;5132955;27;19923;-50
2021/07/23 11:21:37;;;;;;;;;;;26.40;52.20;;;;;;5132290;27;19927;-52
2021/07/23 11:24:10;;;;;;;;;;;26.40;52.10;;;;;;5134918;27;19923;-53
2021/07/23 11:26:38;;;;;;;;;;;26.40;52.10;;;;;;5134442;27;19923;-52
2021/07/23 11:29:06;;;;;;;;;;;26.40;51.40;;;;;;5134882;27;19927;-52
2021/07/23 11:31:35;;;;;;;;;;;26.40;51.30;;;;;;5134750;27;19941;-52
2021/07/23 11:34:21;;;;;;;;;;;26.40;51.40;;;;;;5135786;27;19923;-54
2021/07/23 11:36:49;;;;;;;;;;;26.40;51.30;;;;;;5117069;27;19930;-52
2021/07/23 11:39:21;;;;;;;;;;;26.40;50.80;;;;;;5118609;27;19923;-49
2021/07/23 11:41:58;;;;;;;;;;;26.40;50.60;;;;;;5134919;27;19924;-52
2021/07/23 11:44:28;;;;;;;;;;;26.40;50.80;;;;;;5116909;27;20014;-53
2021/07/23 11:46:55;;;;;;;;;;;26.40;50.70;;;;;;5134091;27;19934;-52
2021/07/23 11:49:28;;;;;;;;;;;26.40;51.50;;;;;;5134315;27;19924;-53
2021/07/23 11:51:55;;;;;;;;;;;26.50;50.50;;;;;;5133946;27;19980;-54
2021/07/23 11:54:23;;;;;;;;;;;26.40;50.70;;;;;;5134005;27;19923;-52
2021/07/23 11:56:51;;;;;;;;;;;26.40;50.60;;;;;;5133998;27;19927;-50
2021/07/23 11:59:18;;;;;;;;;;;26.50;50.50;;;;;;5134974;27;19924;-54
2021/07/23 12:01:45;;;;;;;;;;;26.50;50.00;;;;;;5133845;27;19928;-53
2021/07/23 12:04:12;;;;;;;;;;;26.40;49.60;;;;;;5133620;27;20024;-56
2021/07/23 12:06:44;;;;;;;;;;;26.50;49.60;;;;;;5133456;27;19924;-51
2021/07/23 12:09:11;;;;;;;;;;;26.50;49.50;;;;;;5135253;27;19923;-49
2021/07/23 12:11:39;;;;;;;;;;;26.50;49.50;;;;;;5106920;28;19924;-55
2021/07/23 12:14:10;;;;;;;;;;;26.50;49.60;;;;;;5124305;27;19924;-53
2021/07/23 12:16:39;;;;;;;;;;;26.50;49.80;;;;;;5133972;27;19974;-50
2021/07/23 12:19:10;;;;;;;;;;;26.50;49.80;;;;;;5132020;27;19970;-53
2021/07/23 12:21:38;;;;;;;;;;;26.50;49.70;;;;;;5133279;27;20277;-52
2021/07/23 12:24:06;;;;;;;;;;;26.50;49.50;;;;;;5133161;27;20370;-52
2021/07/23 12:26:35;;;;;;;;;;;26.50;49.80;;;;;;5134316;27;19923;-55
2021/07/23 12:29:04;;;;;;;;;;;26.50;49.60;;;;;;5131787;27;19923;-55
2021/07/23 12:31:31;;;;;;;;;;;26.50;49.30;;;;;;5133370;27;19958;-55
2021/07/23 12:34:01;;;;;;;;;;;26.50;49.40;;;;;;5134601;27;19923;-52
2021/07/23 12:36:28;;;;;;;;;;;26.50;49.30;;;;;;5133936;27;20282;-55
2021/07/23 12:39:02;;;;;;;;;;;26.50;49.20;;;;;;5115950;27;20346;-56
2021/07/23 12:41:30;;;;;;;;;;;26.50;49.40;;;;;;5131885;27;19928;-56
2021/07/23 12:44:03;;;;;;;;;;;26.50;49.20;;;;;;5133149;27;19936;-52
2021/07/23 12:46:31;;;;;;;;;;;26.50;49.10;;;;;;5116531;27;19986;-55
2021/07/23 12:49:08;;;;;;;;;;;26.50;49.00;;;;;;5132605;27;19931;-54
2021/07/23 12:51:35;;;;;;;;;;;26.50;48.70;;;;;;5133283;27;19928;-54
2021/07/23 12:54:02;;;;;;;;;;;26.50;48.70;;;;;;5133029;27;19923;-55
2021/07/23 12:56:30;;;;;;;;;;;26.50;48.60;;;;;;5133192;27;20014;-55
2021/07/23 12:58:58;;;;;;;;;;;26.50;48.60;;;;;;5134182;27;20010;-54
2021/07/23 13:01:27;;;;;;;;;;;26.50;48.80;;;;;;5132447;27;20262;-52
2021/07/23 13:03:55;;;;;;;;;;;26.50;48.90;;;;;;5131639;27;19923;-53
2021/07/23 13:06:22;;;;;;;;;;;26.60;48.60;;;;;;5134120;27;19924;-53
2021/07/23 13:08:49;;;;;;;;;;;26.60;48.30;;;;;;5117920;27;19924;-53
2021/07/23 13:11:18;;;;;;;;;;;26.50;48.10;;;;;;5129172;27;19968;-53
2021/07/23 13:13:46;;;;;;;;;;;26.60;47.80;;;;;;5132313;27;19935;-52
2021/07/23 13:16:16;;;;;;;;;;;26.60;47.50;;;;;;5133598;27;19924;-53
2021/07/23 13:18:44;;;;;;;;;;;26.60;48.00;;;;;;5131209;27;19972;-50
2021/07/23 13:21:14;;;;;;;;;;;26.60;48.00;;;;;;5132665;27;19923;-56
2021/07/23 13:23:41;;;;;;;;;;;26.50;48.10;;;;;;5132389;27;20002;-51
2021/07/23 13:26:08;;;;;;;;;;;26.60;48.50;;;;;;5133811;27;20321;-53
2021/07/23 13:28:36;;;;;;;;;;;26.60;48.50;;;;;;5130637;27;19968;-54
2021/07/23 13:31:03;;;;;;;;;;;26.60;48.20;;;;;;5133143;27;19938;-54
2021/07/23 13:33:32;;;;;;;;;;;26.60;48.30;;;;;;5130447;27;20371;-54
2021/07/23 13:36:12;;;;;;;;;;;26.50;48.30;;;;;;5126122;28;20057;-53
2021/07/23 13:38:44;;;;;;;;;;;26.60;49.20;;;;;;5121246;28;19923;-54
2021/07/23 13:41:12;;;;;;;;;;;26.60;48.50;;;;;;5133654;28;19924;-55
2021/07/23 13:43:39;;;;;;;;;;;26.60;48.40;;;;;;5129866;28;20279;-54
2021/07/23 13:46:07;;;;;;;;;;;26.60;47.90;;;;;;5130815;28;20436;-53
2021/07/23 13:48:35;;;;;;;;;;;26.60;47.60;;;;;;5133383;28;19924;-56
2021/07/23 13:51:02;;;;;;;;;;;26.50;47.10;;;;;;5133458;28;19923;-55
2021/07/23 13:53:29;;;;;;;;;;;26.60;46.80;;;;;;5133175;28;20025;-55
2021/07/23 13:55:57;;;;;;;;;;;26.60;47.00;;;;;;5133501;28;20267;-55
2021/07/23 13:58:25;;;;;;;;;;;26.50;46.60;;;;;;5132928;28;19971;-54
2021/07/23 14:00:54;;;;;;;;;;;26.60;47.10;;;;;;5133486;28;20375;-55
2021/07/23 14:03:21;;;;;;;;;;;26.60;47.20;;;;;;5115269;28;19924;-57
2021/07/23 14:05:49;;;;;;;;;;;26.60;47.70;;;;;;5115421;28;20010;-55
2021/07/23 14:08:17;;;;;;;;;;;26.50;47.50;;;;;;5115610;28;19967;-52
2021/07/23 14:10:44;;;;;;;;;;;26.60;47.00;;;;;;5114996;28;19931;-54
2021/07/23 14:13:11;;;;;;;;;;;26.60;47.20;;;;;;5129613;28;19949;-55
2021/07/23 14:15:41;;;;;;;;;;;26.60;47.30;;;;;;5112656;28;19923;-56
2021/07/23 14:18:08;;;;;;;;;;;26.50;46.80;;;;;;5131669;28;19968;-56
2021/07/23 14:20:35;;;;;;;;;;;26.50;46.90;;;;;;5131531;28;19923;-52
2021/07/23 14:23:03;;;;;;;;;;;26.60;47.40;;;;;;5133047;28;19945;-52